createdAt,value
2019-04-07T00:00:53.045Z,62.43
2019-04-07T00:03:25.761Z,64.45
2019-04-07T00:05:58.556Z,58.08
2019-04-07T00:08:31.355Z,68.00
2019-04-07T00:11:03.643Z,64.27
2019-04-07T00:13:38.367Z,55.20
2019-04-07T00:16:10.927Z,55.90
2019-04-07T00:18:43.424Z,56.15
2019-04-07T00:21:19.376Z,56.85
2019-04-07T00:23:53.538Z,57.05
2019-04-07T00:26:25.238Z,58.87
2019-04-07T00:28:58.004Z,54.38
2019-04-07T00:31:30.645Z,57.95
2019-04-07T00:34:05.294Z,56.05
2019-04-07T00:36:38.146Z,55.98
2019-04-07T00:39:11.541Z,53.95
2019-04-07T00:41:44.082Z,53.78
2019-04-07T00:44:15.731Z,51.60
2019-04-07T00:46:51.013Z,40.40
2019-04-07T00:51:55.217Z,38.75
2019-04-07T00:54:28.101Z,37.58
2019-04-07T00:57:02.140Z,37.65
2019-04-07T00:59:35.185Z,38.55
2019-04-07T01:02:09.098Z,39.50
2019-04-07T01:04:41.959Z,40.38
2019-04-07T01:07:14.762Z,40.73
2019-04-07T01:09:46.624Z,41.00
2019-04-07T01:12:20.381Z,40.00
2019-04-07T01:14:53.343Z,39.40
2019-04-07T01:17:25.675Z,38.02
2019-04-07T01:19:57.375Z,37.75
2019-04-07T01:22:30.128Z,36.68
2019-04-07T01:25:02.900Z,37.55
2019-04-07T01:27:35.963Z,36.15
2019-04-07T01:30:09.674Z,37.83
2019-04-07T01:32:42.357Z,37.75
2019-04-07T01:35:15.213Z,37.10
2019-04-07T01:37:47.635Z,38.25
2019-04-07T01:40:21.993Z,37.90
2019-04-07T01:43:01.482Z,43.70
2019-04-07T01:45:54.599Z,39.92
2019-04-07T01:48:28.321Z,39.88
2019-04-07T01:51:18.681Z,41.50
2019-04-07T01:54:12.081Z,38.67
2019-04-07T01:57:02.980Z,40.43
2019-04-07T01:59:44.351Z,36.68
2019-04-07T02:02:22.629Z,39.03
2019-04-07T02:05:15.521Z,36.20
2019-04-07T02:08:08.673Z,37.75
2019-04-07T02:11:00.231Z,34.15
2019-04-07T02:13:51.684Z,36.83
2019-04-07T02:16:43.226Z,32.53
2019-04-07T02:19:19.054Z,32.73
2019-04-07T02:22:11.283Z,33.25
2019-04-07T02:24:47.395Z,33.55
2019-04-07T02:27:38.363Z,33.00
2019-04-07T02:30:14.105Z,33.13
2019-04-07T02:32:48.634Z,34.27
2019-04-07T02:35:38.997Z,33.00
2019-04-07T02:38:17.081Z,35.88
2019-04-07T02:40:51.329Z,33.35
2019-04-07T02:43:27.431Z,32.67
2019-04-07T02:46:05.421Z,32.80
2019-04-07T02:48:42.656Z,31.42
2019-04-07T02:51:18.434Z,32.45
2019-04-07T02:53:53.149Z,31.82
2019-04-07T02:56:33.743Z,32.93
2019-04-07T02:59:08.816Z,32.67
2019-04-07T03:01:46.712Z,29.12
2019-04-07T03:04:20.905Z,29.45
2019-04-07T03:07:11.814Z,30.20
2019-04-07T03:09:47.385Z,30.08
2019-04-07T03:12:21.581Z,31.40
2019-04-07T03:15:11.093Z,31.05
2019-04-07T03:17:43.765Z,29.60
2019-04-07T03:20:23.287Z,32.88
2019-04-07T03:22:57.343Z,30.82
2019-04-07T03:25:32.447Z,30.27
2019-04-07T03:31:07.874Z,29.05
2019-04-07T03:33:45.367Z,27.85
2019-04-07T03:37:02.865Z,28.77
2019-04-07T03:39:10.779Z,27.87
2019-04-07T03:41:45.879Z,27.67
2019-04-07T03:44:39.091Z,26.87
2019-04-07T03:47:14.243Z,27.32
2019-04-07T03:49:54.938Z,27.02
2019-04-07T03:52:29.497Z,26.62
2019-04-07T03:55:04.652Z,24.90
2019-04-07T03:57:53.423Z,27.20
2019-04-07T04:01:00.823Z,26.40
2019-04-07T04:03:44.055Z,27.30
2019-04-07T04:06:34.215Z,25.72
2019-04-07T04:09:09.943Z,27.87
2019-04-07T04:11:48.894Z,26.70
2019-04-07T04:14:22.020Z,27.05
2019-04-07T04:16:57.968Z,27.22
2019-04-07T04:19:38.822Z,27.05
2019-04-07T04:22:12.873Z,25.70
2019-04-07T04:24:45.410Z,25.40
2019-04-07T04:27:19.128Z,27.10
2019-04-07T04:29:53.312Z,26.90
2019-04-07T04:32:25.539Z,26.80
2019-04-07T04:35:00.967Z,25.62
2019-04-07T04:37:45.521Z,27.20
2019-04-07T04:40:14.001Z,27.15
2019-04-07T04:42:46.657Z,26.77
2019-04-07T04:45:19.660Z,27.30
2019-04-07T04:47:52.599Z,26.62
2019-04-07T04:50:32.274Z,26.52
2019-04-07T04:53:04.676Z,26.80
2019-04-07T04:55:40.448Z,26.42
2019-04-07T04:58:13.265Z,26.85
2019-04-07T05:00:46.892Z,25.92
2019-04-07T05:03:21.560Z,26.12
2019-04-07T05:05:54.581Z,24.02
2019-04-07T05:08:27.163Z,23.30
2019-04-07T05:11:02.330Z,24.10
2019-04-07T05:13:35.738Z,24.90
2019-04-07T05:16:07.376Z,24.40
2019-04-07T05:18:39.859Z,24.25
2019-04-07T05:21:15.103Z,24.20
2019-04-07T05:23:47.102Z,23.65
2019-04-07T05:26:20.140Z,22.85
2019-04-07T05:28:53.846Z,23.60
2019-04-07T05:31:25.825Z,24.72
2019-04-07T05:33:58.631Z,24.27
2019-04-07T05:36:31.363Z,23.22
2019-04-07T05:39:06.471Z,24.90
2019-04-07T05:41:39.037Z,24.00
2019-04-07T05:44:12.296Z,23.92
2019-04-07T05:46:45.289Z,23.02
2019-04-07T05:49:23.315Z,23.80
2019-04-07T05:51:54.488Z,22.98
2019-04-07T05:54:29.516Z,23.38
2019-04-07T05:57:04.364Z,22.60
2019-04-07T05:59:41.782Z,21.30
2019-04-07T06:02:13.220Z,22.60
2019-04-07T06:04:46.818Z,21.77
2019-04-07T06:07:25.796Z,22.20
2019-04-07T06:09:56.071Z,23.07
2019-04-07T06:12:28.498Z,22.55
2019-04-07T06:15:02.991Z,22.20
2019-04-07T06:17:35.769Z,22.35
2019-04-07T06:20:14.101Z,22.50
2019-04-07T06:22:46.996Z,22.13
2019-04-07T06:25:21.057Z,21.68
2019-04-07T06:27:54.299Z,21.73
2019-04-07T06:30:29.969Z,22.07
2019-04-07T06:35:34.764Z,23.10
2019-04-07T06:38:08.227Z,22.25
2019-04-07T06:40:41.223Z,21.85
2019-04-07T06:43:14.547Z,22.40
2019-04-07T06:46:06.245Z,22.27
2019-04-07T06:48:41.426Z,21.85
2019-04-07T06:51:18.984Z,20.70
2019-04-07T06:54:01.165Z,21.02
2019-04-07T06:56:38.086Z,22.73
2019-04-07T06:59:15.307Z,21.27
2019-04-07T07:01:51.174Z,21.73
2019-04-07T07:04:25.402Z,21.40
2019-04-07T07:07:02.256Z,23.87
2019-04-07T07:09:54.833Z,21.97
2019-04-07T07:12:45.063Z,22.00
2019-04-07T07:15:36.437Z,20.88
2019-04-07T07:18:14.178Z,21.57
2019-04-07T07:20:47.288Z,22.30
2019-04-07T07:23:39.795Z,21.93
2019-04-07T07:26:13.457Z,21.97
2019-04-07T07:28:45.845Z,21.77
2019-04-07T07:31:18.225Z,22.80
2019-04-07T07:33:51.832Z,21.50
2019-04-07T07:36:26.297Z,21.07
2019-04-07T07:39:07.583Z,21.75
2019-04-07T07:41:38.975Z,21.25
2019-04-07T07:44:14.417Z,21.82
2019-04-07T07:46:49.118Z,21.48
2019-04-07T07:49:20.379Z,21.90
2019-04-07T07:51:56.013Z,21.20
2019-04-07T07:54:30.662Z,21.95
2019-04-07T07:57:06.859Z,21.75
2019-04-07T07:59:39.441Z,21.55
2019-04-07T08:02:11.875Z,21.80
2019-04-07T08:04:44.476Z,21.37
2019-04-07T08:07:18.219Z,22.60
2019-04-07T08:09:54.414Z,21.33
2019-04-07T08:12:27.172Z,21.85
2019-04-07T08:14:58.899Z,23.40
2019-04-07T08:17:33.853Z,21.57
2019-04-07T08:22:43.650Z,23.20
2019-04-07T08:25:15.260Z,22.32
2019-04-07T08:27:54.355Z,22.10
2019-04-07T08:30:28.276Z,22.52
2019-04-07T08:33:02.075Z,23.07
2019-04-07T08:35:39.490Z,21.75
2019-04-07T08:38:12.238Z,21.73
2019-04-07T08:40:45.563Z,22.57
2019-04-07T08:43:21.349Z,22.17
2019-04-07T08:48:23.979Z,21.65
2019-04-07T08:50:59.840Z,21.82
2019-04-07T08:53:35.277Z,22.35
2019-04-07T08:56:08.849Z,22.22
2019-04-07T08:58:43.550Z,21.80
2019-04-07T09:01:19.680Z,22.40
2019-04-07T09:03:50.650Z,23.47
2019-04-07T09:06:25.602Z,22.30
2019-04-07T09:09:00.377Z,22.65
2019-04-07T09:11:39.022Z,21.65
2019-04-07T09:14:10.467Z,22.30
2019-04-07T09:16:46.986Z,22.27
2019-04-07T09:19:20.357Z,22.35
2019-04-07T09:22:11.791Z,21.57
2019-04-07T09:24:54.936Z,21.25
2019-04-07T09:27:49.391Z,21.77
2019-04-07T09:30:38.963Z,23.45
2019-04-07T09:33:19.727Z,22.62
2019-04-07T09:36:11.169Z,23.32
2019-04-07T09:39:04.183Z,21.73
2019-04-07T09:41:46.131Z,22.13
2019-04-07T09:44:38.919Z,21.85
2019-04-07T09:47:17.875Z,23.62
2019-04-07T09:50:07.335Z,23.18
2019-04-07T09:52:59.253Z,23.60
2019-04-07T09:55:49.031Z,23.80
2019-04-07T09:58:26.450Z,22.17
2019-04-07T10:01:21.083Z,23.18
2019-04-07T10:04:01.288Z,23.38
2019-04-07T10:06:34.425Z,26.17
2019-04-07T10:09:27.940Z,26.10
2019-04-07T10:12:06.387Z,25.52
2019-04-07T10:15:00.059Z,24.67
2019-04-07T10:17:49.545Z,25.82
2019-04-07T10:20:39.726Z,26.20
2019-04-07T10:23:14.129Z,26.42
2019-04-07T10:25:49.636Z,26.00
2019-04-07T10:28:28.682Z,26.95
2019-04-07T10:31:09.781Z,27.73
2019-04-07T10:33:44.243Z,26.17
2019-04-07T10:36:18.441Z,28.02
2019-04-07T10:38:52.279Z,27.55
2019-04-07T10:41:27.103Z,26.35
2019-04-07T10:44:20.357Z,27.75
2019-04-07T10:46:56.034Z,30.45
2019-04-07T10:49:58.537Z,28.85
2019-04-07T10:52:43.876Z,26.37
2019-04-07T10:55:33.082Z,26.42
2019-04-07T10:58:09.048Z,28.00
2019-04-07T11:00:49.470Z,27.25
2019-04-07T11:03:38.304Z,25.48
2019-04-07T11:06:16.657Z,24.90
2019-04-07T11:08:53.463Z,24.37
2019-04-07T11:11:28.817Z,23.92
2019-04-07T11:14:05.729Z,25.45
2019-04-07T11:16:38.709Z,25.50
2019-04-07T11:19:29.398Z,25.75
2019-04-07T11:22:05.657Z,24.75
2019-04-07T11:24:46.962Z,26.00
2019-04-07T11:27:39.506Z,25.68
2019-04-07T11:30:18.058Z,25.82
2019-04-07T11:32:59.110Z,26.70
2019-04-07T11:35:34.582Z,26.15
2019-04-07T11:38:10.436Z,26.73
2019-04-07T11:40:50.734Z,25.97
2019-04-07T11:43:40.772Z,26.45
2019-04-07T11:46:31.601Z,30.15
2019-04-07T11:49:22.952Z,27.70
2019-04-07T11:52:03.812Z,27.87
2019-04-07T11:54:41.393Z,27.40
2019-04-07T11:57:31.213Z,26.57
2019-04-07T12:00:22.369Z,28.07
2019-04-07T12:02:58.382Z,26.15
2019-04-07T12:05:40.784Z,27.55
2019-04-07T12:08:16.148Z,24.45
2019-04-07T12:11:13.111Z,24.37
2019-04-07T12:14:10.661Z,23.27
2019-04-07T12:16:45.926Z,23.57
2019-04-07T12:19:23.922Z,23.57
2019-04-07T12:22:14.983Z,22.82
2019-04-07T12:25:10.943Z,24.65
2019-04-07T12:28:00.243Z,23.80
2019-04-07T12:30:50.226Z,25.10
2019-04-07T12:33:32.800Z,23.73
2019-04-07T12:36:29.457Z,23.60
2019-04-07T12:39:18.935Z,24.32
2019-04-07T12:41:55.929Z,23.90
2019-04-07T12:44:28.895Z,29.20
2019-04-07T12:47:20.594Z,31.80
2019-04-07T12:50:16.675Z,25.62
2019-04-07T12:52:52.950Z,28.42
2019-04-07T12:55:48.887Z,33.58
2019-04-07T12:58:23.421Z,31.90
2019-04-07T13:01:03.742Z,32.33
2019-04-07T13:03:53.747Z,29.67
2019-04-07T13:06:28.762Z,27.87
2019-04-07T13:11:57.069Z,27.10
2019-04-07T13:14:29.923Z,26.52
2019-04-07T13:17:21.644Z,25.25
2019-04-07T13:20:02.261Z,25.68
2019-04-07T13:22:37.861Z,24.27
2019-04-07T13:25:18.715Z,23.62
2019-04-07T13:27:53.085Z,22.87
2019-04-07T13:30:31.386Z,23.18
2019-04-07T13:33:29.450Z,20.68
2019-04-07T13:36:05.020Z,18.40
2019-04-07T13:38:46.594Z,15.25
2019-04-07T13:41:21.819Z,13.05
2019-04-07T13:47:07.336Z,12.80
2019-04-07T13:49:58.994Z,11.85
2019-04-07T13:52:34.876Z,10.63
2019-04-07T13:55:28.492Z,10.40
2019-04-07T13:58:21.785Z,10.53
2019-04-07T14:00:56.311Z,10.78
2019-04-07T14:03:50.460Z,11.93
2019-04-07T14:06:45.933Z,10.93
2019-04-07T14:09:21.176Z,12.43
2019-04-07T14:12:09.046Z,13.55
2019-04-07T14:14:38.288Z,12.82
2019-04-07T14:17:29.732Z,12.88
2019-04-07T14:23:29.800Z,13.60
2019-04-07T14:26:11.387Z,13.72
2019-04-07T14:29:03.061Z,14.03
2019-04-07T14:31:53.401Z,13.78
2019-04-07T14:34:30.325Z,14.50
2019-04-07T14:37:16.326Z,15.38
2019-04-07T14:39:54.523Z,14.70
2019-04-07T14:42:39.539Z,14.60
2019-04-07T14:45:24.261Z,14.35
2019-04-07T14:48:15.003Z,13.20
2019-04-07T14:51:07.566Z,14.45
2019-04-07T14:53:59.966Z,13.72
2019-04-07T14:56:48.883Z,14.15
2019-04-07T14:59:24.640Z,14.50
2019-04-07T15:02:02.083Z,13.62
2019-04-07T15:04:52.036Z,14.40
2019-04-07T15:07:45.211Z,13.78
2019-04-07T15:10:37.353Z,13.13
2019-04-07T15:13:11.909Z,13.15
2019-04-07T15:15:48.096Z,13.53
2019-04-07T15:18:19.763Z,15.13
2019-04-07T15:20:53.737Z,15.20
2019-04-07T15:23:31.424Z,16.07
2019-04-07T15:26:03.247Z,15.45
2019-04-07T15:28:38.444Z,15.60
2019-04-07T15:31:11.783Z,15.32
2019-04-07T15:33:45.480Z,16.75
2019-04-07T15:36:18.761Z,15.68
2019-04-07T15:38:55.398Z,15.55
2019-04-07T15:41:28.252Z,15.60
2019-04-07T15:44:06.261Z,14.60
2019-04-07T15:46:38.037Z,14.53
2019-04-07T15:49:12.695Z,13.50
2019-04-07T15:51:47.721Z,13.80
2019-04-07T15:54:21.561Z,16.97
2019-04-07T15:56:58.751Z,13.85
2019-04-07T15:59:43.335Z,12.95
2019-04-07T16:02:19.285Z,13.75
2019-04-07T16:05:00.348Z,14.65
2019-04-07T16:07:35.208Z,13.78
2019-04-07T16:10:08.103Z,15.88
2019-04-07T16:12:49.933Z,15.25
2019-04-07T16:15:21.119Z,16.70
2019-04-07T16:17:58.776Z,16.00
2019-04-07T16:20:39.499Z,15.93
2019-04-07T16:23:08.662Z,16.07
2019-04-07T16:25:42.877Z,16.52
2019-04-07T16:28:16.563Z,16.17
2019-04-07T16:30:56.313Z,16.77
2019-04-07T16:33:32.519Z,16.65
2019-04-07T16:36:01.791Z,17.12
2019-04-07T16:38:33.282Z,18.52
2019-04-07T16:41:06.589Z,18.15
2019-04-07T16:43:39.826Z,19.27
2019-04-07T16:46:20.147Z,18.30
2019-04-07T16:48:47.768Z,18.82
2019-04-07T16:51:26.433Z,20.15
2019-04-07T16:53:57.050Z,20.23
2019-04-07T16:56:32.248Z,21.33
2019-04-07T16:59:08.428Z,19.85
2019-04-07T17:01:38.867Z,20.68
2019-04-07T17:04:12.665Z,22.13
2019-04-07T17:06:46.153Z,20.17
2019-04-07T17:09:23.052Z,20.85
2019-04-07T17:11:56.681Z,21.55
2019-04-07T17:14:34.461Z,21.70
2019-04-07T17:17:06.834Z,22.62
2019-04-07T17:19:38.494Z,21.82
2019-04-07T17:22:13.988Z,20.37
2019-04-07T17:24:45.679Z,22.07
2019-04-07T17:27:19.215Z,22.42
2019-04-07T17:29:55.353Z,22.90
2019-04-07T17:32:30.517Z,30.60
2019-04-07T17:35:02.311Z,25.92
2019-04-07T17:37:35.212Z,21.75
2019-04-07T17:40:19.743Z,22.95
2019-04-07T17:42:54.048Z,22.80
2019-04-07T17:45:28.680Z,22.52
2019-04-07T17:48:07.134Z,24.47
2019-04-07T17:51:01.048Z,24.87
2019-04-07T17:53:36.045Z,25.02
2019-04-07T17:56:17.930Z,25.55
2019-04-07T17:59:04.650Z,24.80
2019-04-07T18:01:56.669Z,25.25
2019-04-07T18:04:34.772Z,26.33
2019-04-07T18:07:25.953Z,25.27
2019-04-07T18:10:06.835Z,25.70
2019-04-07T18:13:01.437Z,26.27
2019-04-07T18:15:40.598Z,26.12
2019-04-07T18:18:19.786Z,26.45
2019-04-07T18:20:52.966Z,27.82
2019-04-07T18:26:04.190Z,27.32
2019-04-07T18:28:55.119Z,28.20
2019-04-07T18:31:45.444Z,29.37
2019-04-07T18:34:38.257Z,26.60
2019-04-07T18:37:11.716Z,29.80
2019-04-07T18:39:54.218Z,28.10
2019-04-07T18:42:24.127Z,28.70
2019-04-07T18:45:02.408Z,27.98
2019-04-07T18:47:43.304Z,28.30
2019-04-07T18:50:16.587Z,29.00
2019-04-07T18:52:58.411Z,28.20
2019-04-07T18:55:32.015Z,27.98
2019-04-07T18:58:07.459Z,28.65
2019-04-07T19:00:43.402Z,28.02
2019-04-07T19:03:35.069Z,28.17
2019-04-07T19:06:24.835Z,28.62
2019-04-07T19:09:00.769Z,28.42
2019-04-07T19:11:48.530Z,28.10
2019-04-07T19:14:40.343Z,29.57
2019-04-07T19:17:24.056Z,29.32
2019-04-07T19:20:12.889Z,28.87
2019-04-07T19:22:51.292Z,29.72
2019-04-07T19:25:31.196Z,29.85
2019-04-07T19:28:05.027Z,29.82
2019-04-07T19:30:49.831Z,29.50
2019-04-07T19:33:24.548Z,29.20
2019-04-07T19:38:35.437Z,28.50
2019-04-07T19:41:13.447Z,28.83
2019-04-07T19:43:53.176Z,28.45
2019-04-07T19:46:28.170Z,28.35
2019-04-07T19:49:21.585Z,28.20
2019-04-07T19:52:05.384Z,28.47
2019-04-07T19:54:54.993Z,28.07
2019-04-07T19:57:31.226Z,29.05
2019-04-07T20:03:18.320Z,28.65
2019-04-07T20:06:09.268Z,28.77
2019-04-07T20:08:50.121Z,30.35
2019-04-07T20:11:28.426Z,31.65
2019-04-07T20:16:43.384Z,31.70
2019-04-07T20:19:39.443Z,31.23
2019-04-07T20:22:27.129Z,31.55
2019-04-07T20:25:15.998Z,29.67
2019-04-07T20:28:04.198Z,29.48
2019-04-07T20:30:37.839Z,31.17
2019-04-07T20:33:29.847Z,31.40
2019-04-07T20:36:22.911Z,30.72
2019-04-07T20:38:51.399Z,29.48
2019-04-07T20:41:44.802Z,29.50
2019-04-07T20:44:18.855Z,28.85
2019-04-07T20:46:57.024Z,27.80
2019-04-07T20:49:44.873Z,27.87
2019-04-07T20:52:26.189Z,28.95
2019-04-07T20:55:17.531Z,27.67
2019-04-07T20:58:10.302Z,28.70
2019-04-07T21:00:56.950Z,28.85
2019-04-07T21:03:36.081Z,27.00
2019-04-07T21:06:13.054Z,28.00
2019-04-07T21:08:49.896Z,27.37
2019-04-07T21:11:24.369Z,27.32
2019-04-07T21:14:15.551Z,26.70
2019-04-07T21:16:51.124Z,26.68
2019-04-07T21:19:41.075Z,26.25
2019-04-07T21:22:20.915Z,25.85
2019-04-07T21:25:11.507Z,26.00
2019-04-07T21:28:03.397Z,24.27
2019-04-07T21:30:36.743Z,23.57
2019-04-07T21:33:09.760Z,23.22
2019-04-07T21:35:43.023Z,23.50
2019-04-07T21:38:32.742Z,22.77
2019-04-07T21:41:12.232Z,22.02
2019-04-07T21:44:01.893Z,23.57
2019-04-07T21:46:36.665Z,23.32
2019-04-07T21:49:09.834Z,23.02
2019-04-07T21:51:46.519Z,23.70
2019-04-07T21:54:37.897Z,22.45
2019-04-07T21:57:11.114Z,23.35
2019-04-07T21:59:43.913Z,23.83
2019-04-07T22:02:17.443Z,23.00
2019-04-07T22:04:57.141Z,22.20
2019-04-07T22:07:46.231Z,23.42
2019-04-07T22:10:20.744Z,21.73
2019-04-07T22:12:52.722Z,21.75
2019-04-07T22:15:24.616Z,21.27
2019-04-07T22:17:58.279Z,22.20
2019-04-07T22:20:31.343Z,22.10
2019-04-07T22:23:04.399Z,23.45
2019-04-07T22:25:40.932Z,23.38
2019-04-07T22:28:16.691Z,21.95
2019-04-07T22:30:48.712Z,22.67
2019-04-07T22:33:25.175Z,21.85
2019-04-07T22:38:27.358Z,22.05
2019-04-07T22:40:59.067Z,20.97
2019-04-07T22:43:30.412Z,21.52
2019-04-07T22:46:08.517Z,20.97
2019-04-07T22:48:36.460Z,21.87
2019-04-07T22:51:12.072Z,22.48
2019-04-07T22:53:42.048Z,21.68
2019-04-07T22:56:16.347Z,22.20
2019-04-07T22:58:48.553Z,21.90
2019-04-07T23:01:21.240Z,21.27
2019-04-07T23:03:53.788Z,21.25
2019-04-07T23:06:26.658Z,23.38
2019-04-07T23:08:59.433Z,25.48
2019-04-07T23:11:32.044Z,24.90
2019-04-07T23:14:04.937Z,23.35
2019-04-07T23:16:38.034Z,24.30
2019-04-07T23:19:09.814Z,136.43
2019-04-07T23:21:42.931Z,45.20
2019-04-07T23:24:14.994Z,44.40
2019-04-07T23:26:46.746Z,34.55
2019-04-07T23:29:18.224Z,33.38
2019-04-07T23:31:49.824Z,28.17
2019-04-07T23:34:22.136Z,27.95
2019-04-07T23:36:56.493Z,26.57
2019-04-07T23:39:29.237Z,27.48
2019-04-07T23:42:02.749Z,31.23
2019-04-07T23:44:35.206Z,26.07
2019-04-07T23:47:07.594Z,25.65
2019-04-07T23:49:42.636Z,25.65
2019-04-07T23:52:14.964Z,24.25
2019-04-07T23:54:48.259Z,23.22
2019-04-07T23:57:21.908Z,24.57
2019-04-07T23:59:54.833Z,25.15
